sensor_id;sensor_type;location;lat;lon;timestamp;temperature;humidity
35395;DHT22;21500;45.308;9.488;2022-10-16T00:06:45;17.90;99.90
35395;DHT22;21500;45.308;9.488;2022-10-16T00:09:47;17.90;99.90
35395;DHT22;21500;45.308;9.488;2022-10-16T00:12:42;18.00;99.90
35395;DHT22;21500;45.308;9.488;2022-10-16T00:15:48;17.90;99.90
35395;DHT22;21500;45.308;9.488;2022-10-16T00:19:22;17.90;99.90
35395;DHT22;21500;45.308;9.488;2022-10-16T00:22:21;18.00;99.90
35395;DHT22;21500;45.308;9.488;2022-10-16T00:26:15;18.00;99.90
35395;DHT22;21500;45.308;9.488;2022-10-16T00:29:38;18.00;99.90
35395;DHT22;21500;45.308;9.488;2022-10-16T00:32:45;18.10;99.90
35395;DHT22;21500;45.308;9.488;2022-10-16T00:35:59;17.90;99.90
35395;DHT22;21500;45.308;9.488;2022-10-16T00:39:31;18.00;99.90
35395;DHT22;21500;45.308;9.488;2022-10-16T00:43:00;18.10;99.90
35395;DHT22;21500;45.308;9.488;2022-10-16T00:46:04;18.10;99.90
35395;DHT22;21500;45.308;9.488;2022-10-16T00:52:18;18.10;99.90
35395;DHT22;21500;45.308;9.488;2022-10-16T00:59:24;18.10;99.90
35395;DHT22;21500;45.308;9.488;2022-10-16T01:02:28;18.10;99.90
35395;DHT22;21500;45.308;9.488;2022-10-16T01:05:44;18.00;99.90
35395;DHT22;21500;45.308;9.488;2022-10-16T01:16:15;17.90;99.90
35395;DHT22;21500;45.308;9.488;2022-10-16T01:29:00;17.90;99.90
35395;DHT22;21500;45.308;9.488;2022-10-16T01:32:31;18.00;99.90
35395;DHT22;21500;45.308;9.488;2022-10-16T01:35:59;18.00;99.90
35395;DHT22;21500;45.308;9.488;2022-10-16T01:38:49;18.00;99.90
35395;DHT22;21500;45.308;9.488;2022-10-16T01:41:34;17.80;99.90
35395;DHT22;21500;45.308;9.488;2022-10-16T01:44:29;17.90;99.90
35395;DHT22;21500;45.308;9.488;2022-10-16T01:47:04;17.90;99.90
35395;DHT22;21500;45.308;9.488;2022-10-16T01:53:34;17.70;99.90
35395;DHT22;21500;45.308;9.488;2022-10-16T01:56:36;17.50;99.90
35395;DHT22;21500;45.308;9.488;2022-10-16T02:00:09;17.40;99.90
35395;DHT22;21500;45.308;9.488;2022-10-16T02:02:52;17.30;99.90
35395;DHT22;21500;45.308;9.488;2022-10-16T02:06:12;17.30;99.90
35395;DHT22;21500;45.308;9.488;2022-10-16T02:11:54;17.30;99.90
35395;DHT22;21500;45.308;9.488;2022-10-16T02:38:16;17.40;99.90
35395;DHT22;21500;45.308;9.488;2022-10-16T02:41:00;17.40;99.90
35395;DHT22;21500;45.308;9.488;2022-10-16T02:44:09;17.50;99.90
35395;DHT22;21500;45.308;9.488;2022-10-16T02:47:24;17.50;99.90
35395;DHT22;21500;45.308;9.488;2022-10-16T02:50:09;17.40;99.90
35395;DHT22;21500;45.308;9.488;2022-10-16T02:53:02;17.40;99.90
35395;DHT22;21500;45.308;9.488;2022-10-16T02:55:33;17.50;99.90
35395;DHT22;21500;45.308;9.488;2022-10-16T02:58:36;17.40;99.90
35395;DHT22;21500;45.308;9.488;2022-10-16T03:01:48;17.40;99.90
35395;DHT22;21500;45.308;9.488;2022-10-16T03:04:52;17.40;99.90
35395;DHT22;21500;45.308;9.488;2022-10-16T03:08:13;17.50;99.90
35395;DHT22;21500;45.308;9.488;2022-10-16T03:11:18;17.40;99.90
35395;DHT22;21500;45.308;9.488;2022-10-16T03:14:33;17.40;99.90
35395;DHT22;21500;45.308;9.488;2022-10-16T03:17:24;17.40;99.90
35395;DHT22;21500;45.308;9.488;2022-10-16T03:19:55;17.40;99.90
35395;DHT22;21500;45.308;9.488;2022-10-16T03:22:25;17.40;99.90
35395;DHT22;21500;45.308;9.488;2022-10-16T03:24:52;17.40;99.90
35395;DHT22;21500;45.308;9.488;2022-10-16T03:30:00;17.50;99.90
35395;DHT22;21500;45.308;9.488;2022-10-16T03:32:39;17.40;99.90
35395;DHT22;21500;45.308;9.488;2022-10-16T03:35:29;17.40;99.90
35395;DHT22;21500;45.308;9.488;2022-10-16T03:38:27;17.50;99.90
35395;DHT22;21500;45.308;9.488;2022-10-16T03:41:25;17.50;99.90
35395;DHT22;21500;45.308;9.488;2022-10-16T03:43:54;17.50;99.90
35395;DHT22;21500;45.308;9.488;2022-10-16T03:46:32;17.60;99.90
35395;DHT22;21500;45.308;9.488;2022-10-16T03:49:39;17.60;99.90
35395;DHT22;21500;45.308;9.488;2022-10-16T03:52:28;17.50;99.90
35395;DHT22;21500;45.308;9.488;2022-10-16T03:55:03;17.50;99.90
35395;DHT22;21500;45.308;9.488;2022-10-16T03:57:35;17.50;99.90
35395;DHT22;21500;45.308;9.488;2022-10-16T04:00:17;17.50;99.90
35395;DHT22;21500;45.308;9.488;2022-10-16T04:02:58;17.50;99.90
35395;DHT22;21500;45.308;9.488;2022-10-16T04:05:37;17.50;99.90
35395;DHT22;21500;45.308;9.488;2022-10-16T04:08:08;17.50;99.90
35395;DHT22;21500;45.308;9.488;2022-10-16T04:11:04;17.40;99.90
35395;DHT22;21500;45.308;9.488;2022-10-16T04:13:45;17.50;99.90
35395;DHT22;21500;45.308;9.488;2022-10-16T04:16:46;17.40;99.90
35395;DHT22;21500;45.308;9.488;2022-10-16T04:19:47;17.30;99.90
35395;DHT22;21500;45.308;9.488;2022-10-16T04:22:57;17.30;99.90
35395;DHT22;21500;45.308;9.488;2022-10-16T04:26:02;17.20;99.90
35395;DHT22;21500;45.308;9.488;2022-10-16T04:28:52;17.20;99.90
35395;DHT22;21500;45.308;9.488;2022-10-16T04:31:56;17.30;99.90
35395;DHT22;21500;45.308;9.488;2022-10-16T04:35:24;17.20;99.90
35395;DHT22;21500;45.308;9.488;2022-10-16T04:38:22;17.10;99.90
35395;DHT22;21500;45.308;9.488;2022-10-16T04:44:59;17.10;99.90
35395;DHT22;21500;45.308;9.488;2022-10-16T04:47:26;17.10;99.90
35395;DHT22;21500;45.308;9.488;2022-10-16T04:50:33;17.20;99.90
35395;DHT22;21500;45.308;9.488;2022-10-16T04:53:17;17.20;99.90
35395;DHT22;21500;45.308;9.488;2022-10-16T04:56:27;17.30;99.90
35395;DHT22;21500;45.308;9.488;2022-10-16T04:59:09;17.20;99.90
35395;DHT22;21500;45.308;9.488;2022-10-16T05:09:48;17.30;99.90
35395;DHT22;21500;45.308;9.488;2022-10-16T05:12:15;17.30;99.90
35395;DHT22;21500;45.308;9.488;2022-10-16T05:14:41;17.20;99.90
35395;DHT22;21500;45.308;9.488;2022-10-16T05:17:10;17.20;99.90
35395;DHT22;21500;45.308;9.488;2022-10-16T05:19:36;17.20;99.90
35395;DHT22;21500;45.308;9.488;2022-10-16T05:22:08;17.10;99.90
35395;DHT22;21500;45.308;9.488;2022-10-16T05:24:41;17.20;99.90
35395;DHT22;21500;45.308;9.488;2022-10-16T05:27:11;17.00;99.90
35395;DHT22;21500;45.308;9.488;2022-10-16T05:29:48;17.10;99.90
35395;DHT22;21500;45.308;9.488;2022-10-16T05:32:18;17.10;99.90
35395;DHT22;21500;45.308;9.488;2022-10-16T05:34:50;17.20;99.90
35395;DHT22;21500;45.308;9.488;2022-10-16T07:04:31;18.40;99.90
35395;DHT22;21500;45.308;9.488;2022-10-16T07:07:01;18.50;99.90
35395;DHT22;21500;45.308;9.488;2022-10-16T07:09:59;18.50;99.90
35395;DHT22;21500;45.308;9.488;2022-10-16T07:12:56;18.60;99.90
35395;DHT22;21500;45.308;9.488;2022-10-16T07:15:29;18.70;99.90
35395;DHT22;21500;45.308;9.488;2022-10-16T07:50:40;20.30;99.90
35395;DHT22;21500;45.308;9.488;2022-10-16T07:53:06;20.60;99.90
35395;DHT22;21500;45.308;9.488;2022-10-16T07:55:31;20.70;99.90
35395;DHT22;21500;45.308;9.488;2022-10-16T07:57:57;20.80;99.90
35395;DHT22;21500;45.308;9.488;2022-10-16T08:00:23;20.90;99.90
35395;DHT22;21500;45.308;9.488;2022-10-16T08:02:56;21.00;99.90
35395;DHT22;21500;45.308;9.488;2022-10-16T09:29:05;23.00;99.90
35395;DHT22;21500;45.308;9.488;2022-10-16T09:31:33;23.30;99.90
35395;DHT22;21500;45.308;9.488;2022-10-16T09:34:03;23.10;99.90
35395;DHT22;21500;45.308;9.488;2022-10-16T09:36:41;23.10;99.90
35395;DHT22;21500;45.308;9.488;2022-10-16T09:39:10;23.20;99.90
35395;DHT22;21500;45.308;9.488;2022-10-16T09:41:47;23.30;99.90
35395;DHT22;21500;45.308;9.488;2022-10-16T09:49:37;24.10;99.90
35395;DHT22;21500;45.308;9.488;2022-10-16T09:52:12;24.30;99.90
35395;DHT22;21500;45.308;9.488;2022-10-16T09:54:58;24.50;99.90
35395;DHT22;21500;45.308;9.488;2022-10-16T09:57:26;24.60;99.90
35395;DHT22;21500;45.308;9.488;2022-10-16T10:00:30;24.80;99.90
35395;DHT22;21500;45.308;9.488;2022-10-16T10:03:15;25.00;99.90
35395;DHT22;21500;45.308;9.488;2022-10-16T10:05:55;24.80;99.90
35395;DHT22;21500;45.308;9.488;2022-10-16T10:08:29;24.90;99.90
35395;DHT22;21500;45.308;9.488;2022-10-16T10:11:55;24.80;99.90
35395;DHT22;21500;45.308;9.488;2022-10-16T10:17:58;24.80;99.90
35395;DHT22;21500;45.308;9.488;2022-10-16T10:20:41;24.80;99.90
35395;DHT22;21500;45.308;9.488;2022-10-16T10:23:26;24.70;99.90
35395;DHT22;21500;45.308;9.488;2022-10-16T10:26:11;25.00;99.90
35395;DHT22;21500;45.308;9.488;2022-10-16T10:29:15;25.30;99.90
35395;DHT22;21500;45.308;9.488;2022-10-16T10:32:12;25.00;99.90
35395;DHT22;21500;45.308;9.488;2022-10-16T10:38:20;24.80;99.90
35395;DHT22;21500;45.308;9.488;2022-10-16T11:11:49;25.40;99.90
35395;DHT22;21500;45.308;9.488;2022-10-16T11:17:41;24.20;99.90
35395;DHT22;21500;45.308;9.488;2022-10-16T11:20:45;24.30;99.90
35395;DHT22;21500;45.308;9.488;2022-10-16T11:26:30;25.60;99.90
35395;DHT22;21500;45.308;9.488;2022-10-16T11:29:02;25.70;99.90
35395;DHT22;21500;45.308;9.488;2022-10-16T11:31:39;26.00;99.90
35395;DHT22;21500;45.308;9.488;2022-10-16T11:34:34;26.00;99.90
35395;DHT22;21500;45.308;9.488;2022-10-16T11:37:10;25.80;99.90
35395;DHT22;21500;45.308;9.488;2022-10-16T11:39:39;25.90;99.90
35395;DHT22;21500;45.308;9.488;2022-10-16T11:45:58;26.10;99.90
35395;DHT22;21500;45.308;9.488;2022-10-16T11:48:38;25.80;99.90
35395;DHT22;21500;45.308;9.488;2022-10-16T11:51:26;25.90;99.90
35395;DHT22;21500;45.308;9.488;2022-10-16T11:56:50;25.60;99.90
35395;DHT22;21500;45.308;9.488;2022-10-16T11:59:58;25.40;99.90
35395;DHT22;21500;45.308;9.488;2022-10-16T12:02:58;25.30;99.90
35395;DHT22;21500;45.308;9.488;2022-10-16T12:08:13;25.00;99.90
35395;DHT22;21500;45.308;9.488;2022-10-16T12:10:46;25.00;99.90
35395;DHT22;21500;45.308;9.488;2022-10-16T12:13:40;25.00;99.90
35395;DHT22;21500;45.308;9.488;2022-10-16T12:19:16;24.50;99.90
35395;DHT22;21500;45.308;9.488;2022-10-16T12:21:46;24.60;99.90
35395;DHT22;21500;45.308;9.488;2022-10-16T12:24:32;24.40;99.90
35395;DHT22;21500;45.308;9.488;2022-10-16T12:26:59;24.50;99.90
35395;DHT22;21500;45.308;9.488;2022-10-16T12:29:43;24.50;99.90
35395;DHT22;21500;45.308;9.488;2022-10-16T12:34:52;24.40;99.90
35395;DHT22;21500;45.308;9.488;2022-10-16T12:37:24;24.30;99.90
35395;DHT22;21500;45.308;9.488;2022-10-16T12:39:53;24.30;99.90
35395;DHT22;21500;45.308;9.488;2022-10-16T12:42:23;24.20;99.90
35395;DHT22;21500;45.308;9.488;2022-10-16T12:44:49;24.30;99.90
35395;DHT22;21500;45.308;9.488;2022-10-16T12:47:24;24.40;99.90
35395;DHT22;21500;45.308;9.488;2022-10-16T12:50:21;24.50;99.90
35395;DHT22;21500;45.308;9.488;2022-10-16T12:52:48;24.70;99.90
35395;DHT22;21500;45.308;9.488;2022-10-16T12:55:19;25.00;99.90
35395;DHT22;21500;45.308;9.488;2022-10-16T13:25:08;25.20;99.90
35395;DHT22;21500;45.308;9.488;2022-10-16T13:30:21;25.20;99.90
35395;DHT22;21500;45.308;9.488;2022-10-16T13:33:19;25.20;99.90
35395;DHT22;21500;45.308;9.488;2022-10-16T13:35:54;25.20;99.90
35395;DHT22;21500;45.308;9.488;2022-10-16T13:38:31;25.40;99.90
35395;DHT22;21500;45.308;9.488;2022-10-16T13:41:11;25.30;99.90
35395;DHT22;21500;45.308;9.488;2022-10-16T13:43:47;25.30;99.90
35395;DHT22;21500;45.308;9.488;2022-10-16T13:46:23;25.30;99.90
35395;DHT22;21500;45.308;9.488;2022-10-16T13:49:00;25.30;99.90
35395;DHT22;21500;45.308;9.488;2022-10-16T13:51:29;25.50;99.90
35395;DHT22;21500;45.308;9.488;2022-10-16T13:53:56;25.90;99.90
35395;DHT22;21500;45.308;9.488;2022-10-16T13:56:27;25.90;99.90
35395;DHT22;21500;45.308;9.488;2022-10-16T13:59:01;25.70;99.90
35395;DHT22;21500;45.308;9.488;2022-10-16T14:01:53;25.60;99.90
35395;DHT22;21500;45.308;9.488;2022-10-16T14:04:22;25.90;99.90
35395;DHT22;21500;45.308;9.488;2022-10-16T14:06:50;25.40;99.90
35395;DHT22;21500;45.308;9.488;2022-10-16T14:09:41;25.10;99.90
35395;DHT22;21500;45.308;9.488;2022-10-16T14:12:11;25.50;99.90
35395;DHT22;21500;45.308;9.488;2022-10-16T14:17:33;25.60;99.90
35395;DHT22;21500;45.308;9.488;2022-10-16T14:20:04;25.20;99.90
35395;DHT22;21500;45.308;9.488;2022-10-16T14:22:36;25.40;99.90
35395;DHT22;21500;45.308;9.488;2022-10-16T14:25:26;25.40;99.90
35395;DHT22;21500;45.308;9.488;2022-10-16T14:28:03;25.50;99.90
35395;DHT22;21500;45.308;9.488;2022-10-16T14:30:34;25.50;99.90
35395;DHT22;21500;45.308;9.488;2022-10-16T14:33:06;25.60;99.90
35395;DHT22;21500;45.308;9.488;2022-10-16T14:35:45;25.20;99.90
35395;DHT22;21500;45.308;9.488;2022-10-16T14:38:18;25.40;99.90
35395;DHT22;21500;45.308;9.488;2022-10-16T14:40:48;25.40;99.90
35395;DHT22;21500;45.308;9.488;2022-10-16T14:43:39;25.40;99.90
35395;DHT22;21500;45.308;9.488;2022-10-16T14:46:16;25.20;99.90
35395;DHT22;21500;45.308;9.488;2022-10-16T14:48:45;25.40;99.90
35395;DHT22;21500;45.308;9.488;2022-10-16T14:51:20;25.60;99.90
35395;DHT22;21500;45.308;9.488;2022-10-16T14:53:49;25.70;99.90
35395;DHT22;21500;45.308;9.488;2022-10-16T14:56:21;25.70;99.90
35395;DHT22;21500;45.308;9.488;2022-10-16T15:22:58;26.80;99.90
35395;DHT22;21500;45.308;9.488;2022-10-16T15:28:48;26.60;99.90
35395;DHT22;21500;45.308;9.488;2022-10-16T18:54:20;20.10;99.90
35395;DHT22;21500;45.308;9.488;2022-10-16T18:56:47;20.20;99.90
35395;DHT22;21500;45.308;9.488;2022-10-16T18:59:13;20.20;99.90
35395;DHT22;21500;45.308;9.488;2022-10-16T19:01:48;20.10;99.90
35395;DHT22;21500;45.308;9.488;2022-10-16T19:04:16;20.00;99.90
35395;DHT22;21500;45.308;9.488;2022-10-16T19:06:49;19.90;99.90
35395;DHT22;21500;45.308;9.488;2022-10-16T19:09:18;19.80;99.90
35395;DHT22;21500;45.308;9.488;2022-10-16T19:11:45;19.80;99.90
35395;DHT22;21500;45.308;9.488;2022-10-16T19:14:14;19.70;99.90
35395;DHT22;21500;45.308;9.488;2022-10-16T19:16:47;19.80;99.90
35395;DHT22;21500;45.308;9.488;2022-10-16T19:19:17;19.80;99.90
35395;DHT22;21500;45.308;9.488;2022-10-16T19:21:50;19.70;99.90
